Terminal Aerodrome Forecast
Issued by NWS Pendleton, OR

Home | Current Version | Previous Version | Text Only | Print | Product List | Glossary On
Versions: 1 2 3 4 5 6 7 8 9 10 11 12 13 14 15 16 17
000
FTUS46 KPDT 251100
TAFPDT
TAF
KPDT 251132Z 2512/2612 27009KT P6SM BKN080
     FM251800 27011KT P6SM SCT060
     FM260200 23005KT P6SM SCT050
     FM260800 17006KT P6SM SCT015 BKN040=

USA.gov is the U.S. government's official web portal to all federal, state and local government web resources and services.